Disclaimer

Please do not use the information listed here in-flight or in-navigation, as they are not provided to us by the airports but are provided by volunteers, so they might be outdated.

Search


Regions


Airport information page

Radio informations:
Tower (TWR) - 118.6 MHz

Airport informations:
Latitude: 10° 13' 37.29" N
Longitude: 103° 58' 01.81" E
Elevation: 23 feet - 7 meters
Operating hours: N/A
Operating agency: Civil government, landing fees and diplomatic clearance may be required
Timezone: N/A
Fuel: N/A

Runway information:
08/26 - 6900 x 95 feet< - >2103 x 29 meters

Recent METARs:
VVPQ 180530Z VRB02KT 9999 SCT015 FEW017CB SCT040 26/23 Q1012 NOSIG CB/NW
VVPQ 180600Z 00000KT 9999 SCT015 FEW017CB SCT040 26/23 Q1011 NOSIG CB/NW
VVPQ 180630Z 06002KT 9999 SCT015 SCT040 27/23 Q1010 NOSIG

Airport on the map: